sensor_id;sensor_type;location;lat;lon;timestamp;temperature;humidity
10089;DHT22;51898;49.864;8.550;2023-03-09T00:00:13;9.20;99.10
10089;DHT22;51898;49.864;8.550;2023-03-09T00:03:18;9.20;99.10
10089;DHT22;51898;49.864;8.550;2023-03-09T00:06:20;9.30;99.10
10089;DHT22;51898;49.864;8.550;2023-03-09T00:09:23;9.30;99.20
10089;DHT22;51898;49.864;8.550;2023-03-09T00:12:25;9.30;99.30
10089;DHT22;51898;49.864;8.550;2023-03-09T00:15:26;9.30;99.30
10089;DHT22;51898;49.864;8.550;2023-03-09T00:18:28;9.30;99.70
10089;DHT22;51898;49.864;8.550;2023-03-09T00:21:30;9.30;100.00
10089;DHT22;51898;49.864;8.550;2023-03-09T00:24:42;9.30;100.00
10089;DHT22;51898;49.864;8.550;2023-03-09T00:27:49;9.30;100.00
10089;DHT22;51898;49.864;8.550;2023-03-09T00:30:51;9.30;100.00
10089;DHT22;51898;49.864;8.550;2023-03-09T00:33:53;9.40;100.00
10089;DHT22;51898;49.864;8.550;2023-03-09T00:36:55;9.40;100.00
10089;DHT22;51898;49.864;8.550;2023-03-09T00:39:56;9.40;100.00
10089;DHT22;51898;49.864;8.550;2023-03-09T00:42:58;9.40;100.00
10089;DHT22;51898;49.864;8.550;2023-03-09T00:45:59;9.40;100.00
10089;DHT22;51898;49.864;8.550;2023-03-09T00:49:02;9.40;100.00
10089;DHT22;51898;49.864;8.550;2023-03-09T00:52:07;9.40;100.00
10089;DHT22;51898;49.864;8.550;2023-03-09T00:55:10;9.40;100.00
10089;DHT22;51898;49.864;8.550;2023-03-09T00:58:11;9.40;99.80
10089;DHT22;51898;49.864;8.550;2023-03-09T01:01:15;9.40;99.70
10089;DHT22;51898;49.864;8.550;2023-03-09T01:04:17;9.40;99.50
10089;DHT22;51898;49.864;8.550;2023-03-09T01:07:19;9.40;99.30
10089;DHT22;51898;49.864;8.550;2023-03-09T01:10:21;9.30;99.00
10089;DHT22;51898;49.864;8.550;2023-03-09T01:13:23;9.30;98.80
10089;DHT22;51898;49.864;8.550;2023-03-09T01:16:24;9.30;98.40
10089;DHT22;51898;49.864;8.550;2023-03-09T01:19:26;9.30;98.30
10089;DHT22;51898;49.864;8.550;2023-03-09T01:22:28;9.30;98.30
10089;DHT22;51898;49.864;8.550;2023-03-09T01:25:30;9.30;98.30
10089;DHT22;51898;49.864;8.550;2023-03-09T01:28:31;9.30;98.30
10089;DHT22;51898;49.864;8.550;2023-03-09T01:31:33;9.30;98.50
10089;DHT22;51898;49.864;8.550;2023-03-09T01:34:35;9.30;98.40
10089;DHT22;51898;49.864;8.550;2023-03-09T01:37:36;9.30;98.60
10089;DHT22;51898;49.864;8.550;2023-03-09T01:40:38;9.20;98.70
10089;DHT22;51898;49.864;8.550;2023-03-09T01:43:45;9.30;98.80
10089;DHT22;51898;49.864;8.550;2023-03-09T01:46:48;9.30;98.70
10089;DHT22;51898;49.864;8.550;2023-03-09T01:49:51;9.20;98.80
10089;DHT22;51898;49.864;8.550;2023-03-09T01:52:53;9.20;98.90
10089;DHT22;51898;49.864;8.550;2023-03-09T01:55:57;9.20;98.70
10089;DHT22;51898;49.864;8.550;2023-03-09T01:59:01;9.10;98.70
10089;DHT22;51898;49.864;8.550;2023-03-09T02:02:04;9.10;98.70
10089;DHT22;51898;49.864;8.550;2023-03-09T02:05:11;9.10;97.80
10089;DHT22;51898;49.864;8.550;2023-03-09T02:08:13;9.10;97.20
10089;DHT22;51898;49.864;8.550;2023-03-09T02:11:16;9.20;96.70
10089;DHT22;51898;49.864;8.550;2023-03-09T02:14:18;9.10;96.00
10089;DHT22;51898;49.864;8.550;2023-03-09T02:17:22;9.10;95.70
10089;DHT22;51898;49.864;8.550;2023-03-09T02:27:24;9.20;95.40
10089;DHT22;51898;49.864;8.550;2023-03-09T02:30:28;9.20;95.90
10089;DHT22;51898;49.864;8.550;2023-03-09T02:33:31;9.20;96.20
10089;DHT22;51898;49.864;8.550;2023-03-09T02:36:33;9.10;96.30
10089;DHT22;51898;49.864;8.550;2023-03-09T02:39:40;9.10;96.70
10089;DHT22;51898;49.864;8.550;2023-03-09T02:42:45;9.10;96.70
10089;DHT22;51898;49.864;8.550;2023-03-09T02:45:48;9.10;96.60
10089;DHT22;51898;49.864;8.550;2023-03-09T02:48:50;9.00;96.90
10089;DHT22;51898;49.864;8.550;2023-03-09T02:51:52;9.00;97.10
10089;DHT22;51898;49.864;8.550;2023-03-09T02:54:53;9.00;97.30
10089;DHT22;51898;49.864;8.550;2023-03-09T02:57:55;9.00;97.50
10089;DHT22;51898;49.864;8.550;2023-03-09T03:00:57;9.00;97.40
10089;DHT22;51898;49.864;8.550;2023-03-09T03:03:59;8.90;97.40
10089;DHT22;51898;49.864;8.550;2023-03-09T03:07:00;8.90;97.40
10089;DHT22;51898;49.864;8.550;2023-03-09T03:10:02;8.90;97.40
10089;DHT22;51898;49.864;8.550;2023-03-09T03:13:04;8.80;97.60
10089;DHT22;51898;49.864;8.550;2023-03-09T03:16:05;8.80;97.60
10089;DHT22;51898;49.864;8.550;2023-03-09T03:19:07;8.80;97.60
10089;DHT22;51898;49.864;8.550;2023-03-09T03:22:09;8.80;98.10
10089;DHT22;51898;49.864;8.550;2023-03-09T03:25:11;8.80;98.30
10089;DHT22;51898;49.864;8.550;2023-03-09T03:28:13;8.80;98.60
10089;DHT22;51898;49.864;8.550;2023-03-09T03:31:15;8.90;98.60
10089;DHT22;51898;49.864;8.550;2023-03-09T03:34:16;8.90;98.50
10089;DHT22;51898;49.864;8.550;2023-03-09T03:37:18;8.90;98.20
10089;DHT22;51898;49.864;8.550;2023-03-09T03:40:20;9.00;96.30
10089;DHT22;51898;49.864;8.550;2023-03-09T03:43:21;9.00;95.40
10089;DHT22;51898;49.864;8.550;2023-03-09T03:46:23;9.10;95.50
10089;DHT22;51898;49.864;8.550;2023-03-09T03:49:25;9.10;95.30
10089;DHT22;51898;49.864;8.550;2023-03-09T03:52:26;9.00;95.60
10089;DHT22;51898;49.864;8.550;2023-03-09T03:55:28;9.10;95.70
10089;DHT22;51898;49.864;8.550;2023-03-09T03:58:30;9.10;95.60
10089;DHT22;51898;49.864;8.550;2023-03-09T04:01:31;9.10;95.70
10089;DHT22;51898;49.864;8.550;2023-03-09T04:04:33;9.10;95.60
10089;DHT22;51898;49.864;8.550;2023-03-09T04:07:35;9.20;95.60
10089;DHT22;51898;49.864;8.550;2023-03-09T04:10:40;9.10;95.60
10089;DHT22;51898;49.864;8.550;2023-03-09T04:13:41;9.10;95.60
10089;DHT22;51898;49.864;8.550;2023-03-09T04:16:43;9.10;95.40
10089;DHT22;51898;49.864;8.550;2023-03-09T04:19:45;9.10;94.80
10089;DHT22;51898;49.864;8.550;2023-03-09T04:22:50;9.10;94.80
10089;DHT22;51898;49.864;8.550;2023-03-09T04:25:56;9.20;94.40
10089;DHT22;51898;49.864;8.550;2023-03-09T04:28:58;9.10;94.20
10089;DHT22;51898;49.864;8.550;2023-03-09T04:31:59;9.10;94.20
10089;DHT22;51898;49.864;8.550;2023-03-09T04:35:01;9.20;94.10
10089;DHT22;51898;49.864;8.550;2023-03-09T04:38:02;9.10;94.10
10089;DHT22;51898;49.864;8.550;2023-03-09T04:41:04;9.10;93.70
10089;DHT22;51898;49.864;8.550;2023-03-09T04:44:06;9.20;93.60
10089;DHT22;51898;49.864;8.550;2023-03-09T04:47:11;9.20;93.30
10089;DHT22;51898;49.864;8.550;2023-03-09T04:50:16;9.20;93.40
10089;DHT22;51898;49.864;8.550;2023-03-09T04:53:17;9.20;93.30
10089;DHT22;51898;49.864;8.550;2023-03-09T04:56:19;9.20;93.30
10089;DHT22;51898;49.864;8.550;2023-03-09T04:59:21;9.10;93.50
10089;DHT22;51898;49.864;8.550;2023-03-09T05:02:22;9.20;93.50
10089;DHT22;51898;49.864;8.550;2023-03-09T05:05:24;9.20;93.30
10089;DHT22;51898;49.864;8.550;2023-03-09T05:08:26;9.20;93.10
10089;DHT22;51898;49.864;8.550;2023-03-09T05:11:28;9.20;93.10
10089;DHT22;51898;49.864;8.550;2023-03-09T05:14:29;9.20;93.00
10089;DHT22;51898;49.864;8.550;2023-03-09T05:17:32;9.30;92.60
10089;DHT22;51898;49.864;8.550;2023-03-09T05:20:34;9.20;92.80
10089;DHT22;51898;49.864;8.550;2023-03-09T05:23:36;9.20;92.90
10089;DHT22;51898;49.864;8.550;2023-03-09T05:26:37;9.20;92.50
10089;DHT22;51898;49.864;8.550;2023-03-09T05:29:40;9.20;92.40
10089;DHT22;51898;49.864;8.550;2023-03-09T05:32:42;9.20;92.30
10089;DHT22;51898;49.864;8.550;2023-03-09T05:35:43;9.20;92.20
10089;DHT22;51898;49.864;8.550;2023-03-09T05:38:45;9.20;92.40
10089;DHT22;51898;49.864;8.550;2023-03-09T05:41:48;9.20;92.50
10089;DHT22;51898;49.864;8.550;2023-03-09T05:44:51;9.10;92.30
10089;DHT22;51898;49.864;8.550;2023-03-09T05:47:53;9.10;92.30
10089;DHT22;51898;49.864;8.550;2023-03-09T05:50:54;9.20;92.20
10089;DHT22;51898;49.864;8.550;2023-03-09T05:54:00;9.10;92.40
10089;DHT22;51898;49.864;8.550;2023-03-09T05:57:01;9.10;92.20
10089;DHT22;51898;49.864;8.550;2023-03-09T06:00:03;9.10;92.40
10089;DHT22;51898;49.864;8.550;2023-03-09T06:03:06;9.20;92.10
10089;DHT22;51898;49.864;8.550;2023-03-09T06:06:09;9.20;91.90
10089;DHT22;51898;49.864;8.550;2023-03-09T06:09:11;9.10;91.90
10089;DHT22;51898;49.864;8.550;2023-03-09T06:12:12;9.10;91.90
10089;DHT22;51898;49.864;8.550;2023-03-09T06:15:14;9.10;91.80
10089;DHT22;51898;49.864;8.550;2023-03-09T06:18:16;9.10;91.60
10089;DHT22;51898;49.864;8.550;2023-03-09T06:21:19;9.20;91.30
10089;DHT22;51898;49.864;8.550;2023-03-09T06:24:20;9.10;91.40
10089;DHT22;51898;49.864;8.550;2023-03-09T06:27:22;9.10;91.10
10089;DHT22;51898;49.864;8.550;2023-03-09T06:30:24;9.10;91.10
10089;DHT22;51898;49.864;8.550;2023-03-09T06:33:27;9.10;91.20
10089;DHT22;51898;49.864;8.550;2023-03-09T06:36:29;9.10;91.20
10089;DHT22;51898;49.864;8.550;2023-03-09T06:39:31;9.20;91.30
10089;DHT22;51898;49.864;8.550;2023-03-09T06:42:32;9.20;91.30
10089;DHT22;51898;49.864;8.550;2023-03-09T06:45:34;9.20;91.60
10089;DHT22;51898;49.864;8.550;2023-03-09T06:48:36;9.20;92.10
10089;DHT22;51898;49.864;8.550;2023-03-09T06:51:37;9.20;92.10
10089;DHT22;51898;49.864;8.550;2023-03-09T06:54:39;9.20;92.30
10089;DHT22;51898;49.864;8.550;2023-03-09T06:57:41;9.20;92.50
10089;DHT22;51898;49.864;8.550;2023-03-09T07:00:43;9.30;92.60
10089;DHT22;51898;49.864;8.550;2023-03-09T07:03:48;9.30;92.40
10089;DHT22;51898;49.864;8.550;2023-03-09T07:06:50;9.40;92.30
10089;DHT22;51898;49.864;8.550;2023-03-09T07:09:51;9.40;92.00
10089;DHT22;51898;49.864;8.550;2023-03-09T07:12:53;9.40;91.70
10089;DHT22;51898;49.864;8.550;2023-03-09T07:15:55;9.50;91.80
10089;DHT22;51898;49.864;8.550;2023-03-09T07:18:57;9.50;92.40
10089;DHT22;51898;49.864;8.550;2023-03-09T07:21:58;9.50;92.60
10089;DHT22;51898;49.864;8.550;2023-03-09T07:25:00;9.50;92.80
10089;DHT22;51898;49.864;8.550;2023-03-09T07:28:04;9.50;93.20
10089;DHT22;51898;49.864;8.550;2023-03-09T07:31:11;9.50;92.80
10089;DHT22;51898;49.864;8.550;2023-03-09T07:34:13;9.60;92.50
10089;DHT22;51898;49.864;8.550;2023-03-09T07:37:14;9.60;92.70
10089;DHT22;51898;49.864;8.550;2023-03-09T07:40:16;9.70;92.20
10089;DHT22;51898;49.864;8.550;2023-03-09T07:43:18;9.80;91.60
10089;DHT22;51898;49.864;8.550;2023-03-09T07:46:20;9.80;91.60
10089;DHT22;51898;49.864;8.550;2023-03-09T07:49:22;9.90;90.80
10089;DHT22;51898;49.864;8.550;2023-03-09T07:52:24;9.90;90.90
10089;DHT22;51898;49.864;8.550;2023-03-09T07:55:31;10.00;90.20
10089;DHT22;51898;49.864;8.550;2023-03-09T07:58:37;10.00;90.20
10089;DHT22;51898;49.864;8.550;2023-03-09T08:01:40;10.00;90.20
10089;DHT22;51898;49.864;8.550;2023-03-09T08:04:41;10.00;90.10
10089;DHT22;51898;49.864;8.550;2023-03-09T08:07:43;10.00;90.10
10089;DHT22;51898;49.864;8.550;2023-03-09T08:10:49;10.00;90.10
10089;DHT22;51898;49.864;8.550;2023-03-09T08:13:51;10.10;89.30
10089;DHT22;51898;49.864;8.550;2023-03-09T08:16:53;10.20;89.30
10089;DHT22;51898;49.864;8.550;2023-03-09T08:19:55;10.20;88.90
10089;DHT22;51898;49.864;8.550;2023-03-09T08:22:56;10.30;89.10
10089;DHT22;51898;49.864;8.550;2023-03-09T08:25:58;10.30;88.70
10089;DHT22;51898;49.864;8.550;2023-03-09T08:28:59;10.30;88.70
10089;DHT22;51898;49.864;8.550;2023-03-09T08:32:08;10.40;88.60
10089;DHT22;51898;49.864;8.550;2023-03-09T08:35:11;10.40;88.70
10089;DHT22;51898;49.864;8.550;2023-03-09T08:38:12;10.50;88.40
10089;DHT22;51898;49.864;8.550;2023-03-09T08:41:14;10.50;87.60
10089;DHT22;51898;49.864;8.550;2023-03-09T08:44:16;10.50;88.20
10089;DHT22;51898;49.864;8.550;2023-03-09T08:47:18;10.40;88.20
10089;DHT22;51898;49.864;8.550;2023-03-09T08:50:19;10.50;88.30
10089;DHT22;51898;49.864;8.550;2023-03-09T08:53:21;10.50;87.70
10089;DHT22;51898;49.864;8.550;2023-03-09T08:56:22;10.50;87.50
10089;DHT22;51898;49.864;8.550;2023-03-09T08:59:24;10.50;87.40
10089;DHT22;51898;49.864;8.550;2023-03-09T09:02:26;10.60;87.20
10089;DHT22;51898;49.864;8.550;2023-03-09T09:05:27;10.60;86.90
10089;DHT22;51898;49.864;8.550;2023-03-09T09:08:29;10.70;86.30
10089;DHT22;51898;49.864;8.550;2023-03-09T09:11:31;10.80;86.30
10089;DHT22;51898;49.864;8.550;2023-03-09T09:14:35;10.90;86.20
10089;DHT22;51898;49.864;8.550;2023-03-09T09:17:39;11.00;86.20
10089;DHT22;51898;49.864;8.550;2023-03-09T09:20:42;11.20;85.90
10089;DHT22;51898;49.864;8.550;2023-03-09T09:23:45;11.20;85.90
10089;DHT22;51898;49.864;8.550;2023-03-09T09:26:46;11.30;84.70
10089;DHT22;51898;49.864;8.550;2023-03-09T09:29:48;11.30;85.10
10089;DHT22;51898;49.864;8.550;2023-03-09T09:32:50;11.30;84.80
10089;DHT22;51898;49.864;8.550;2023-03-09T09:36:02;11.30;84.10
10089;DHT22;51898;49.864;8.550;2023-03-09T09:39:04;11.40;84.40
10089;DHT22;51898;49.864;8.550;2023-03-09T09:42:24;11.40;85.10
10089;DHT22;51898;49.864;8.550;2023-03-09T09:45:32;11.50;83.80
10089;DHT22;51898;49.864;8.550;2023-03-09T09:48:33;11.60;83.80
10089;DHT22;51898;49.864;8.550;2023-03-09T09:55:04;11.80;82.40
10089;DHT22;51898;49.864;8.550;2023-03-09T09:58:42;11.90;82.00
10089;DHT22;51898;49.864;8.550;2023-03-09T10:02:13;12.00;80.70
10089;DHT22;51898;49.864;8.550;2023-03-09T10:05:26;12.10;79.70
10089;DHT22;51898;49.864;8.550;2023-03-09T10:08:54;12.20;79.30
10089;DHT22;51898;49.864;8.550;2023-03-09T10:12:00;12.20;79.50
10089;DHT22;51898;49.864;8.550;2023-03-09T10:15:14;12.20;80.80
10089;DHT22;51898;49.864;8.550;2023-03-09T10:18:22;12.30;80.50
10089;DHT22;51898;49.864;8.550;2023-03-09T10:21:54;12.40;80.70
10089;DHT22;51898;49.864;8.550;2023-03-09T10:24:56;12.40;80.00
10089;DHT22;51898;49.864;8.550;2023-03-09T10:28:09;12.40;79.60
10089;DHT22;51898;49.864;8.550;2023-03-09T10:31:28;12.40;79.90
10089;DHT22;51898;49.864;8.550;2023-03-09T10:34:44;12.40;80.00
10089;DHT22;51898;49.864;8.550;2023-03-09T10:37:50;12.30;79.90
10089;DHT22;51898;49.864;8.550;2023-03-09T10:40:54;12.30;81.00
10089;DHT22;51898;49.864;8.550;2023-03-09T10:43:58;12.20;80.00
10089;DHT22;51898;49.864;8.550;2023-03-09T10:47:01;12.20;80.30
10089;DHT22;51898;49.864;8.550;2023-03-09T10:50:10;12.20;80.30
10089;DHT22;51898;49.864;8.550;2023-03-09T10:53:38;12.10;79.50
10089;DHT22;51898;49.864;8.550;2023-03-09T10:56:44;12.10;79.70
10089;DHT22;51898;49.864;8.550;2023-03-09T11:00:01;12.10;80.20
10089;DHT22;51898;49.864;8.550;2023-03-09T11:03:19;12.10;80.10
10089;DHT22;51898;49.864;8.550;2023-03-09T11:09:36;12.00;80.30
10089;DHT22;51898;49.864;8.550;2023-03-09T11:12:46;11.90;80.20
10089;DHT22;51898;49.864;8.550;2023-03-09T11:19:17;11.90;81.20
10089;DHT22;51898;49.864;8.550;2023-03-09T11:22:19;12.00;80.40
10089;DHT22;51898;49.864;8.550;2023-03-09T11:25:47;12.00;80.60
10089;DHT22;51898;49.864;8.550;2023-03-09T11:29:17;12.00;81.60
10089;DHT22;51898;49.864;8.550;2023-03-09T11:32:21;12.10;81.40
10089;DHT22;51898;49.864;8.550;2023-03-09T11:35:23;12.30;80.90
10089;DHT22;51898;49.864;8.550;2023-03-09T11:38:26;12.50;79.70
10089;DHT22;51898;49.864;8.550;2023-03-09T11:41:37;12.60;79.80
10089;DHT22;51898;49.864;8.550;2023-03-09T11:44:43;12.70;79.60
10089;DHT22;51898;49.864;8.550;2023-03-09T11:47:50;13.00;79.20
10089;DHT22;51898;49.864;8.550;2023-03-09T11:51:00;13.20;78.20
10089;DHT22;51898;49.864;8.550;2023-03-09T11:57:15;13.60;76.90
10089;DHT22;51898;49.864;8.550;2023-03-09T12:00:20;13.50;75.90
10089;DHT22;51898;49.864;8.550;2023-03-09T12:03:24;13.80;76.20
10089;DHT22;51898;49.864;8.550;2023-03-09T12:06:47;14.00;74.40
10089;DHT22;51898;49.864;8.550;2023-03-09T12:10:17;14.20;75.10
10089;DHT22;51898;49.864;8.550;2023-03-09T12:13:27;14.40;73.90
10089;DHT22;51898;49.864;8.550;2023-03-09T12:16:35;14.50;72.70
10089;DHT22;51898;49.864;8.550;2023-03-09T12:19:37;14.50;73.30
10089;DHT22;51898;49.864;8.550;2023-03-09T12:22:39;14.60;73.20
10089;DHT22;51898;49.864;8.550;2023-03-09T12:25:55;14.80;72.60
10089;DHT22;51898;49.864;8.550;2023-03-09T12:29:20;14.60;71.00
10089;DHT22;51898;49.864;8.550;2023-03-09T12:42:38;14.40;71.60
10089;DHT22;51898;49.864;8.550;2023-03-09T12:45:42;14.40;70.70
10089;DHT22;51898;49.864;8.550;2023-03-09T12:48:44;14.40;69.90
10089;DHT22;51898;49.864;8.550;2023-03-09T12:51:55;14.40;71.00
10089;DHT22;51898;49.864;8.550;2023-03-09T12:55:03;14.40;71.10
10089;DHT22;51898;49.864;8.550;2023-03-09T13:04:24;14.70;69.70
10089;DHT22;51898;49.864;8.550;2023-03-09T13:07:27;14.70;70.00
10089;DHT22;51898;49.864;8.550;2023-03-09T13:10:48;14.80;70.10
10089;DHT22;51898;49.864;8.550;2023-03-09T13:17:00;15.00;68.30
10089;DHT22;51898;49.864;8.550;2023-03-09T13:20:33;15.00;67.70
10089;DHT22;51898;49.864;8.550;2023-03-09T13:23:35;15.00;67.90
10089;DHT22;51898;49.864;8.550;2023-03-09T13:26:41;15.00;67.90
10089;DHT22;51898;49.864;8.550;2023-03-09T13:29:49;15.10;68.30
10089;DHT22;51898;49.864;8.550;2023-03-09T13:36:29;15.20;67.20
10089;DHT22;51898;49.864;8.550;2023-03-09T13:39:33;15.30;67.00
10089;DHT22;51898;49.864;8.550;2023-03-09T13:42:37;15.30;67.60
10089;DHT22;51898;49.864;8.550;2023-03-09T13:45:39;15.40;67.80
10089;DHT22;51898;49.864;8.550;2023-03-09T13:48:46;15.40;66.80
10089;DHT22;51898;49.864;8.550;2023-03-09T13:51:53;15.10;66.40
10089;DHT22;51898;49.864;8.550;2023-03-09T13:54:58;14.70;67.40
10089;DHT22;51898;49.864;8.550;2023-03-09T13:58:16;14.40;68.40
10089;DHT22;51898;49.864;8.550;2023-03-09T14:01:22;13.90;71.00
10089;DHT22;51898;49.864;8.550;2023-03-09T14:04:25;13.70;71.90
10089;DHT22;51898;49.864;8.550;2023-03-09T14:07:31;13.50;71.90
10089;DHT22;51898;49.864;8.550;2023-03-09T14:10:36;13.60;71.10
10089;DHT22;51898;49.864;8.550;2023-03-09T14:13:54;13.80;71.20
10089;DHT22;51898;49.864;8.550;2023-03-09T14:17:00;14.00;71.40
10089;DHT22;51898;49.864;8.550;2023-03-09T14:20:02;14.30;70.30
10089;DHT22;51898;49.864;8.550;2023-03-09T14:26:36;14.40;69.70
10089;DHT22;51898;49.864;8.550;2023-03-09T14:29:38;14.50;69.50
10089;DHT22;51898;49.864;8.550;2023-03-09T14:32:56;14.40;70.10
10089;DHT22;51898;49.864;8.550;2023-03-09T14:36:25;14.40;70.00
10089;DHT22;51898;49.864;8.550;2023-03-09T14:39:31;14.40;69.30
10089;DHT22;51898;49.864;8.550;2023-03-09T14:42:34;14.30;69.90
10089;DHT22;51898;49.864;8.550;2023-03-09T14:45:36;14.40;68.20
10089;DHT22;51898;49.864;8.550;2023-03-09T14:48:38;14.30;69.30
10089;DHT22;51898;49.864;8.550;2023-03-09T14:51:41;14.20;69.10
10089;DHT22;51898;49.864;8.550;2023-03-09T14:54:45;14.10;69.80
10089;DHT22;51898;49.864;8.550;2023-03-09T14:57:48;14.10;69.60
10089;DHT22;51898;49.864;8.550;2023-03-09T15:00:50;14.10;69.50
10089;DHT22;51898;49.864;8.550;2023-03-09T15:03:52;14.00;68.40
10089;DHT22;51898;49.864;8.550;2023-03-09T15:06:54;13.90;68.70
10089;DHT22;51898;49.864;8.550;2023-03-09T15:09:56;13.90;69.50
10089;DHT22;51898;49.864;8.550;2023-03-09T15:12:57;13.90;70.00
10089;DHT22;51898;49.864;8.550;2023-03-09T15:15:59;13.90;69.60
10089;DHT22;51898;49.864;8.550;2023-03-09T15:19:01;13.90;68.20
10089;DHT22;51898;49.864;8.550;2023-03-09T15:22:02;13.90;69.10
10089;DHT22;51898;49.864;8.550;2023-03-09T15:25:04;14.00;69.30
10089;DHT22;51898;49.864;8.550;2023-03-09T15:28:06;14.00;70.10
10089;DHT22;51898;49.864;8.550;2023-03-09T15:31:09;13.80;69.50
10089;DHT22;51898;49.864;8.550;2023-03-09T15:34:13;13.80;70.70
10089;DHT22;51898;49.864;8.550;2023-03-09T15:37:14;13.70;69.30
10089;DHT22;51898;49.864;8.550;2023-03-09T15:40:17;13.70;70.20
10089;DHT22;51898;49.864;8.550;2023-03-09T15:43:18;13.70;69.20
10089;DHT22;51898;49.864;8.550;2023-03-09T15:46:20;13.80;69.60
10089;DHT22;51898;49.864;8.550;2023-03-09T15:49:25;13.90;69.80
10089;DHT22;51898;49.864;8.550;2023-03-09T15:52:27;13.90;70.00
10089;DHT22;51898;49.864;8.550;2023-03-09T15:55:29;13.90;70.40
10089;DHT22;51898;49.864;8.550;2023-03-09T15:58:33;13.80;69.90
10089;DHT22;51898;49.864;8.550;2023-03-09T16:01:37;13.70;70.30
10089;DHT22;51898;49.864;8.550;2023-03-09T16:04:41;13.70;70.80
10089;DHT22;51898;49.864;8.550;2023-03-09T16:07:43;13.70;70.80
10089;DHT22;51898;49.864;8.550;2023-03-09T16:10:46;13.60;70.90
10089;DHT22;51898;49.864;8.550;2023-03-09T16:13:48;13.60;71.30
10089;DHT22;51898;49.864;8.550;2023-03-09T16:16:50;13.60;71.70
10089;DHT22;51898;49.864;8.550;2023-03-09T16:19:51;13.50;72.10
10089;DHT22;51898;49.864;8.550;2023-03-09T16:22:53;13.50;72.40
10089;DHT22;51898;49.864;8.550;2023-03-09T16:25:56;13.50;72.60
10089;DHT22;51898;49.864;8.550;2023-03-09T16:28:58;13.40;72.40
10089;DHT22;51898;49.864;8.550;2023-03-09T16:31:59;13.30;73.30
10089;DHT22;51898;49.864;8.550;2023-03-09T16:35:10;13.20;73.90
10089;DHT22;51898;49.864;8.550;2023-03-09T16:38:12;13.10;74.10
10089;DHT22;51898;49.864;8.550;2023-03-09T16:41:14;13.00;74.50
10089;DHT22;51898;49.864;8.550;2023-03-09T16:44:17;13.00;75.30
10089;DHT22;51898;49.864;8.550;2023-03-09T16:47:24;12.90;74.90
10089;DHT22;51898;49.864;8.550;2023-03-09T16:50:26;12.90;75.10
10089;DHT22;51898;49.864;8.550;2023-03-09T16:53:29;12.90;75.00
10089;DHT22;51898;49.864;8.550;2023-03-09T16:56:31;12.90;75.30
10089;DHT22;51898;49.864;8.550;2023-03-09T16:59:33;12.80;75.00
10089;DHT22;51898;49.864;8.550;2023-03-09T17:02:38;12.80;75.20
10089;DHT22;51898;49.864;8.550;2023-03-09T17:05:41;12.80;75.20
10089;DHT22;51898;49.864;8.550;2023-03-09T17:08:45;12.70;75.50
10089;DHT22;51898;49.864;8.550;2023-03-09T17:11:47;12.60;75.40
10089;DHT22;51898;49.864;8.550;2023-03-09T17:14:51;12.50;75.40
10089;DHT22;51898;49.864;8.550;2023-03-09T17:17:52;12.40;75.60
10089;DHT22;51898;49.864;8.550;2023-03-09T17:20:54;12.40;75.60
10089;DHT22;51898;49.864;8.550;2023-03-09T17:23:56;12.30;75.60
10089;DHT22;51898;49.864;8.550;2023-03-09T17:27:02;12.20;75.60
10089;DHT22;51898;49.864;8.550;2023-03-09T17:30:04;12.20;75.90
10089;DHT22;51898;49.864;8.550;2023-03-09T17:33:07;12.20;76.00
10089;DHT22;51898;49.864;8.550;2023-03-09T17:36:08;12.20;76.00
10089;DHT22;51898;49.864;8.550;2023-03-09T17:39:12;12.10;76.20
10089;DHT22;51898;49.864;8.550;2023-03-09T17:42:14;12.10;76.40
10089;DHT22;51898;49.864;8.550;2023-03-09T17:45:15;12.10;76.20
10089;DHT22;51898;49.864;8.550;2023-03-09T17:48:18;12.00;76.30
10089;DHT22;51898;49.864;8.550;2023-03-09T17:51:21;12.00;76.40
10089;DHT22;51898;49.864;8.550;2023-03-09T17:54:22;12.00;76.50
10089;DHT22;51898;49.864;8.550;2023-03-09T17:57:25;12.00;76.50
10089;DHT22;51898;49.864;8.550;2023-03-09T18:00:27;11.90;76.80
10089;DHT22;51898;49.864;8.550;2023-03-09T18:03:28;11.90;77.00
10089;DHT22;51898;49.864;8.550;2023-03-09T18:06:31;11.90;77.30
10089;DHT22;51898;49.864;8.550;2023-03-09T18:09:37;11.80;77.50
10089;DHT22;51898;49.864;8.550;2023-03-09T18:12:39;11.80;77.70
10089;DHT22;51898;49.864;8.550;2023-03-09T18:15:40;11.70;77.90
10089;DHT22;51898;49.864;8.550;2023-03-09T18:18:42;11.70;78.20
10089;DHT22;51898;49.864;8.550;2023-03-09T18:21:44;11.70;78.30
10089;DHT22;51898;49.864;8.550;2023-03-09T18:24:46;11.60;78.30
10089;DHT22;51898;49.864;8.550;2023-03-09T18:27:47;11.60;78.50
10089;DHT22;51898;49.864;8.550;2023-03-09T18:30:49;11.60;78.50
10089;DHT22;51898;49.864;8.550;2023-03-09T18:33:50;11.50;78.70
10089;DHT22;51898;49.864;8.550;2023-03-09T18:36:53;11.50;78.60
10089;DHT22;51898;49.864;8.550;2023-03-09T18:39:56;11.50;78.70
10089;DHT22;51898;49.864;8.550;2023-03-09T18:42:58;11.40;78.90
10089;DHT22;51898;49.864;8.550;2023-03-09T18:45:59;11.40;78.90
10089;DHT22;51898;49.864;8.550;2023-03-09T18:49:01;11.40;78.90
10089;DHT22;51898;49.864;8.550;2023-03-09T18:52:04;11.40;78.80
10089;DHT22;51898;49.864;8.550;2023-03-09T18:55:06;11.40;78.60
10089;DHT22;51898;49.864;8.550;2023-03-09T18:58:08;11.40;78.50
10089;DHT22;51898;49.864;8.550;2023-03-09T19:01:11;11.40;78.60
10089;DHT22;51898;49.864;8.550;2023-03-09T19:04:14;11.50;77.90
10089;DHT22;51898;49.864;8.550;2023-03-09T19:07:15;11.50;77.50
10089;DHT22;51898;49.864;8.550;2023-03-09T19:10:17;11.60;77.10
10089;DHT22;51898;49.864;8.550;2023-03-09T19:13:19;11.50;76.90
10089;DHT22;51898;49.864;8.550;2023-03-09T19:16:20;11.60;76.50
10089;DHT22;51898;49.864;8.550;2023-03-09T19:19:22;11.60;76.10
10089;DHT22;51898;49.864;8.550;2023-03-09T19:22:24;11.60;75.70
10089;DHT22;51898;49.864;8.550;2023-03-09T19:25:25;11.60;75.10
10089;DHT22;51898;49.864;8.550;2023-03-09T19:28:27;11.70;74.30
10089;DHT22;51898;49.864;8.550;2023-03-09T19:31:31;11.70;73.80
10089;DHT22;51898;49.864;8.550;2023-03-09T19:34:38;11.70;73.50
10089;DHT22;51898;49.864;8.550;2023-03-09T19:37:40;11.70;73.20
10089;DHT22;51898;49.864;8.550;2023-03-09T19:40:44;11.80;72.80
10089;DHT22;51898;49.864;8.550;2023-03-09T19:43:45;11.80;72.50
10089;DHT22;51898;49.864;8.550;2023-03-09T19:46:47;11.80;72.90
10089;DHT22;51898;49.864;8.550;2023-03-09T19:49:49;11.80;73.00
10089;DHT22;51898;49.864;8.550;2023-03-09T19:52:51;11.80;73.10
10089;DHT22;51898;49.864;8.550;2023-03-09T19:55:53;11.70;73.90
10089;DHT22;51898;49.864;8.550;2023-03-09T19:58:58;11.70;74.30
10089;DHT22;51898;49.864;8.550;2023-03-09T20:01:59;11.60;74.60
10089;DHT22;51898;49.864;8.550;2023-03-09T20:05:01;11.50;74.70
10089;DHT22;51898;49.864;8.550;2023-03-09T20:08:03;11.50;74.40
10089;DHT22;51898;49.864;8.550;2023-03-09T20:11:07;11.50;74.10
10089;DHT22;51898;49.864;8.550;2023-03-09T20:14:09;11.50;73.60
10089;DHT22;51898;49.864;8.550;2023-03-09T20:17:11;11.50;72.80